Time;durP1;ratioP1;P1;durP2;ratioP2;P2;SDS_P1;SDS_P2;PMS_P1;PMS_P2;Temp;Humidity;BMP_temperature;BMP_pressure;BME280_temperature;BME280_humidity;BME280_pressure;Samples;Min_cycle;Max_cycle;Signal;HPM_P1;HPM_P2
2023/08/28 00:00:59;;;;;;;6.18;3.00;;;;;;;;;;5014315;28;20404;-61
2023/08/28 00:03:25;;;;;;;6.65;2.70;;;;;;;;;;4994457;28;20057;-61
2023/08/28 00:05:54;;;;;;;5.32;2.90;;;;;;;;;;5014619;28;20050;-60
2023/08/28 00:08:20;;;;;;;6.60;2.60;;;;;;;;;;5011133;28;20038;-60
2023/08/28 00:10:46;;;;;;;4.72;2.60;;;;;;;;;;5017054;28;20033;-60
2023/08/28 00:13:12;;;;;;;7.95;2.72;;;;;;;;;;4998934;28;20042;-60
2023/08/28 00:15:39;;;;;;;4.55;2.40;;;;;;;;;;5016358;28;20037;-60
2023/08/28 00:18:05;;;;;;;4.43;2.60;;;;;;;;;;4995078;28;20033;-60
2023/08/28 00:20:31;;;;;;;4.47;2.25;;;;;;;;;;5012229;28;20037;-61
2023/08/28 00:22:58;;;;;;;3.95;2.80;;;;;;;;;;4995943;28;20391;-61
2023/08/28 00:25:24;;;;;;;8.48;2.78;;;;;;;;;;5000310;28;20405;-61
2023/08/28 00:27:50;;;;;;;5.28;2.60;;;;;;;;;;4994841;28;20500;-61
2023/08/28 00:30:16;;;;;;;6.85;2.47;;;;;;;;;;4974530;28;20054;-61
2023/08/28 00:32:42;;;;;;;6.00;2.58;;;;;;;;;;4984946;28;20439;-61
2023/08/28 00:35:09;;;;;;;4.15;2.92;;;;;;;;;;5018151;28;20046;-61
2023/08/28 00:37:35;;;;;;;5.82;2.83;;;;;;;;;;4995008;28;20041;-60
2023/08/28 00:40:03;;;;;;;4.50;2.88;;;;;;;;;;5004720;28;20037;-61
2023/08/28 00:42:29;;;;;;;5.80;3.00;;;;;;;;;;4995119;28;20042;-61
2023/08/28 00:45:03;;;;;;;6.78;2.92;;;;;;;;;;5014137;28;20048;-61
2023/08/28 00:47:29;;;;;;;6.40;2.53;;;;;;;;;;5012615;28;20037;-61
2023/08/28 00:49:55;;;;;;;6.03;3.00;;;;;;;;;;4999101;28;20042;-60
2023/08/28 00:52:22;;;;;;;4.45;2.47;;;;;;;;;;4995054;28;20045;-61
2023/08/28 00:54:49;;;;;;;3.67;2.70;;;;;;;;;;5010066;28;20045;-61
2023/08/28 00:57:17;;;;;;;4.90;2.50;;;;;;;;;;4991445;28;20045;-61
2023/08/28 00:59:44;;;;;;;5.45;2.70;;;;;;;;;;5011704;28;20060;-61
2023/08/28 01:02:10;;;;;;;4.47;2.42;;;;;;;;;;5012350;28;20417;-61
2023/08/28 01:04:36;;;;;;;4.00;2.80;;;;;;;;;;4980421;28;20038;-61
2023/08/28 01:07:42;;;;;;;5.93;2.65;;;;;;;;;;4997182;28;20378;-60
2023/08/28 01:10:18;;;;;;;5.47;2.60;;;;;;;;;;4977295;28;20038;-61
2023/08/28 01:12:53;;;;;;;5.38;3.00;;;;;;;;;;4997122;28;20044;-60
2023/08/28 01:15:24;;;;;;;4.38;2.92;;;;;;;;;;5000031;28;20053;-61
2023/08/28 01:17:58;;;;;;;4.05;2.70;;;;;;;;;;4997945;28;20042;-61
2023/08/28 01:20:27;;;;;;;4.30;2.75;;;;;;;;;;4994460;28;20413;-61
2023/08/28 01:23:01;;;;;;;9.55;2.97;;;;;;;;;;4998606;28;20041;-61
2023/08/28 01:25:29;;;;;;;6.25;2.63;;;;;;;;;;4999132;28;20045;-61
2023/08/28 01:27:56;;;;;;;7.45;2.92;;;;;;;;;;5007903;28;20042;-60
2023/08/28 01:30:22;;;;;;;4.70;2.90;;;;;;;;;;5011856;28;20037;-61
2023/08/28 01:32:49;;;;;;;4.80;2.80;;;;;;;;;;5011756;28;20054;-60
2023/08/28 01:35:26;;;;;;;4.18;2.58;;;;;;;;;;4999633;28;20050;-61
2023/08/28 01:38:16;;;;;;;7.55;2.92;;;;;;;;;;4978720;28;20040;-60
2023/08/28 01:40:53;;;;;;;4.57;2.65;;;;;;;;;;5001866;28;20042;-61
2023/08/28 01:43:23;;;;;;;7.35;2.85;;;;;;;;;;4998209;28;20044;-61
2023/08/28 01:45:50;;;;;;;;;;;;;;;;;;5002371;28;20045;-58
2023/08/28 01:48:16;;;;;;;5.53;2.70;;;;;;;;;;4993471;28;20388;-61
2023/08/28 01:50:42;;;;;;;4.22;2.58;;;;;;;;;;5011559;28;20038;-60
2023/08/28 01:53:10;;;;;;;6.10;2.50;;;;;;;;;;5011344;28;20512;-61
2023/08/28 01:55:45;;;;;;;5.32;2.75;;;;;;;;;;4992402;28;20408;-61
2023/08/28 01:58:12;;;;;;;5.30;2.60;;;;;;;;;;4979112;28;20042;-60
2023/08/28 02:00:39;;;;;;;4.85;2.45;;;;;;;;;;4969626;28;20041;-60
2023/08/28 02:03:09;;;;;;;8.20;2.70;;;;;;;;;;4988594;28;20395;-61
2023/08/28 02:05:36;;;;;;;4.55;2.85;;;;;;;;;;4994759;28;20049;-61
2023/08/28 02:08:02;;;;;;;10.13;4.10;;;;;;;;;;4982861;28;20030;-61
2023/08/28 02:10:29;;;;;;;6.82;2.70;;;;;;;;;;4994470;28;20042;-60
2023/08/28 02:12:58;;;;;;;4.07;2.90;;;;;;;;;;5002677;28;20046;-61
2023/08/28 02:15:25;;;;;;;4.30;2.70;;;;;;;;;;4993227;28;20049;-61
2023/08/28 02:17:51;;;;;;;3.58;2.55;;;;;;;;;;4991408;28;20078;-61
2023/08/28 02:20:17;;;;;;;6.32;2.85;;;;;;;;;;4997549;28;20050;-61
2023/08/28 02:22:43;;;;;;;2.88;2.33;;;;;;;;;;4978178;28;20428;-61
2023/08/28 02:25:09;;;;;;;5.43;2.67;;;;;;;;;;5004904;28;20041;-61
2023/08/28 02:27:35;;;;;;;4.70;2.60;;;;;;;;;;4995574;28;20097;-61
2023/08/28 02:30:02;;;;;;;4.25;2.63;;;;;;;;;;5018190;28;20436;-60
2023/08/28 02:32:30;;;;;;;12.88;2.67;;;;;;;;;;4989598;28;20044;-61
2023/08/28 02:34:56;;;;;;;5.65;2.72;;;;;;;;;;5009925;28;20400;-61
2023/08/28 02:37:22;;;;;;;4.97;2.72;;;;;;;;;;4997936;28;20034;-61
2023/08/28 02:39:49;;;;;;;4.60;2.22;;;;;;;;;;5009833;28;20401;-60
2023/08/28 02:42:15;;;;;;;6.35;2.83;;;;;;;;;;5012819;28;20037;-60
2023/08/28 02:44:41;;;;;;;5.28;2.78;;;;;;;;;;4990958;28;20034;-60
2023/08/28 02:47:08;;;;;;;8.45;2.88;;;;;;;;;;4991570;28;20034;-60
2023/08/28 02:49:34;;;;;;;4.53;2.60;;;;;;;;;;4990032;28;20033;-60
2023/08/28 02:52:00;;;;;;;4.88;2.78;;;;;;;;;;4988896;28;20022;-60
2023/08/28 02:54:26;;;;;;;4.00;2.60;;;;;;;;;;5002777;28;20398;-60
2023/08/28 02:56:52;;;;;;;8.75;2.33;;;;;;;;;;4992813;28;20033;-60
2023/08/28 02:59:18;;;;;;;6.82;3.03;;;;;;;;;;4987292;28;20045;-60
2023/08/28 03:01:44;;;;;;;4.70;2.50;;;;;;;;;;5008558;28;20033;-61
2023/08/28 03:04:10;;;;;;;4.07;2.67;;;;;;;;;;4988545;28;20043;-60
2023/08/28 03:06:37;;;;;;;4.10;2.55;;;;;;;;;;4987963;28;20037;-60
2023/08/28 03:09:12;;;;;;;3.42;2.55;;;;;;;;;;4998197;28;20046;-60
2023/08/28 03:11:38;;;;;;;5.65;2.40;;;;;;;;;;4983975;28;20034;-60
2023/08/28 03:14:04;;;;;;;6.45;2.70;;;;;;;;;;4996440;28;20049;-60
2023/08/28 03:16:31;;;;;;;5.40;2.45;;;;;;;;;;5000928;28;20044;-59
2023/08/28 03:18:57;;;;;;;6.72;2.72;;;;;;;;;;5000162;28;20030;-60
2023/08/28 03:21:23;;;;;;;4.15;2.67;;;;;;;;;;5012522;28;20049;-60
2023/08/28 03:23:51;;;;;;;6.57;3.25;;;;;;;;;;5001471;28;20036;-60
2023/08/28 03:26:17;;;;;;;5.55;3.00;;;;;;;;;;4979881;28;20044;-60
2023/08/28 03:28:44;;;;;;;5.35;3.03;;;;;;;;;;4994060;28;20707;-60
2023/08/28 03:31:11;;;;;;;4.93;2.53;;;;;;;;;;5022991;28;20041;-60
2023/08/28 03:33:37;;;;;;;7.15;3.03;;;;;;;;;;5015888;28;20042;-60
2023/08/28 03:36:04;;;;;;;7.55;2.80;;;;;;;;;;5004168;28;20040;-60
2023/08/28 03:38:30;;;;;;;4.13;3.03;;;;;;;;;;4972990;28;20049;-60
2023/08/28 03:40:56;;;;;;;9.50;2.97;;;;;;;;;;4989402;28;20052;-60
2023/08/28 03:43:22;;;;;;;4.70;2.78;;;;;;;;;;4994894;28;20041;-59
2023/08/28 03:45:49;;;;;;;5.18;2.72;;;;;;;;;;5011197;28;20057;-60
2023/08/28 03:48:15;;;;;;;8.45;3.05;;;;;;;;;;5012855;28;20037;-60
2023/08/28 03:50:41;;;;;;;4.07;2.60;;;;;;;;;;5014127;28;20448;-60
2023/08/28 03:53:07;;;;;;;6.60;2.60;;;;;;;;;;4978172;28;20381;-60
2023/08/28 03:55:33;;;;;;;5.28;2.55;;;;;;;;;;4989492;28;20041;-59
2023/08/28 03:58:03;;;;;;;7.32;2.83;;;;;;;;;;4991519;28;20052;-60
2023/08/28 04:00:32;;;;;;;7.53;2.80;;;;;;;;;;5012911;28;20053;-60
2023/08/28 04:02:59;;;;;;;3.90;2.85;;;;;;;;;;5008095;28;20432;-61
2023/08/28 04:05:26;;;;;;;4.55;3.03;;;;;;;;;;4994186;28;20045;-61
2023/08/28 04:07:54;;;;;;;4.68;2.67;;;;;;;;;;4992136;28;20408;-60
2023/08/28 04:10:21;;;;;;;6.13;2.80;;;;;;;;;;4997730;28;20053;-60
2023/08/28 04:12:47;;;;;;;4.55;2.72;;;;;;;;;;4998049;28;20056;-60
2023/08/28 04:15:13;;;;;;;4.82;2.92;;;;;;;;;;4994770;28;20429;-61
2023/08/28 04:17:39;;;;;;;4.22;2.70;;;;;;;;;;5004659;28;20038;-60
2023/08/28 04:20:12;;;;;;;10.68;6.05;;;;;;;;;;5016619;28;20034;-60
2023/08/28 04:22:43;;;;;;;14.82;7.38;;;;;;;;;;5017256;28;20056;-60
2023/08/28 04:25:10;;;;;;;15.25;6.45;;;;;;;;;;4989791;28;20031;-61
2023/08/28 04:27:39;;;;;;;5.70;3.85;;;;;;;;;;4993620;28;20507;-60
2023/08/28 04:30:07;;;;;;;4.72;3.03;;;;;;;;;;4993979;28;20045;-60
2023/08/28 04:32:33;;;;;;;4.80;2.97;;;;;;;;;;4993877;28;20502;-60
2023/08/28 04:35:00;;;;;;;4.15;3.22;;;;;;;;;;4996833;28;20034;-60
2023/08/28 04:37:27;;;;;;;7.55;3.03;;;;;;;;;;4998200;28;20048;-60
2023/08/28 04:39:53;;;;;;;5.38;3.00;;;;;;;;;;4978969;28;20037;-60
2023/08/28 04:42:20;;;;;;;4.80;2.90;;;;;;;;;;4999215;28;20037;-60
2023/08/28 04:44:46;;;;;;;6.85;3.05;;;;;;;;;;4987968;28;20041;-60
2023/08/28 04:47:15;;;;;;;6.57;3.50;;;;;;;;;;4989536;28;20046;-60
2023/08/28 04:49:41;;;;;;;8.13;3.22;;;;;;;;;;4993063;28;20065;-60
2023/08/28 04:52:08;;;;;;;3.58;2.88;;;;;;;;;;5012282;28;20044;-60
2023/08/28 04:54:36;;;;;;;7.45;3.15;;;;;;;;;;4980993;28;20379;-60
2023/08/28 04:57:02;;;;;;;5.63;2.85;;;;;;;;;;5003892;28;20042;-60
2023/08/28 04:59:28;;;;;;;9.27;2.92;;;;;;;;;;5012110;28;20514;-60
2023/08/28 05:01:57;;;;;;;7.80;3.58;;;;;;;;;;4991893;28;20034;-60
2023/08/28 05:04:23;;;;;;;3.60;2.80;;;;;;;;;;4994200;28;20044;-60
2023/08/28 05:06:50;;;;;;;5.25;3.42;;;;;;;;;;5013283;28;20061;-59
2023/08/28 05:09:16;;;;;;;5.50;3.00;;;;;;;;;;5012786;28;20424;-60
2023/08/28 05:11:42;;;;;;;5.25;3.20;;;;;;;;;;4996479;28;20034;-61
2023/08/28 05:14:09;;;;;;;4.55;3.05;;;;;;;;;;5011867;28;20049;-60
2023/08/28 05:16:35;;;;;;;9.75;3.13;;;;;;;;;;4999048;28;20045;-60
2023/08/28 05:19:01;;;;;;;6.28;2.85;;;;;;;;;;5012080;28;20060;-60
2023/08/28 05:21:27;;;;;;;4.80;3.00;;;;;;;;;;4998587;28;20049;-59
2023/08/28 05:23:53;;;;;;;5.90;2.85;;;;;;;;;;5011131;28;20026;-59
2023/08/28 05:26:19;;;;;;;5.38;2.90;;;;;;;;;;4998724;28;20041;-59
2023/08/28 05:28:45;;;;;;;5.65;2.72;;;;;;;;;;5007947;28;20412;-59
2023/08/28 05:31:11;;;;;;;7.65;3.67;;;;;;;;;;5012752;28;20038;-59
2023/08/28 05:33:38;;;;;;;5.38;3.13;;;;;;;;;;4988633;28;20034;-59
2023/08/28 05:36:04;;;;;;;5.18;3.40;;;;;;;;;;4991845;28;20033;-60
2023/08/28 05:38:31;;;;;;;9.10;3.95;;;;;;;;;;5009590;28;20042;-59
2023/08/28 05:40:57;;;;;;;12.00;4.00;;;;;;;;;;4987393;28;20040;-59
2023/08/28 05:43:23;;;;;;;5.55;3.22;;;;;;;;;;4988998;28;20040;-58
2023/08/28 05:45:50;;;;;;;8.95;3.50;;;;;;;;;;4990671;28;20050;-59
2023/08/28 05:48:16;;;;;;;5.07;3.20;;;;;;;;;;4989192;28;20044;-60
2023/08/28 05:50:48;;;;;;;4.28;3.25;;;;;;;;;;4990737;28;20041;-59
2023/08/28 05:53:15;;;;;;;5.80;3.42;;;;;;;;;;4992137;28;20049;-59
2023/08/28 05:55:42;;;;;;;7.68;3.80;;;;;;;;;;4991044;28;20042;-60
2023/08/28 05:58:08;;;;;;;7.07;3.55;;;;;;;;;;4976430;28;20041;-60
2023/08/28 06:00:34;;;;;;;8.63;3.53;;;;;;;;;;4993985;28;20049;-60
2023/08/28 06:03:00;;;;;;;3.90;3.20;;;;;;;;;;4991819;28;20524;-59
2023/08/28 06:05:28;;;;;;;4.95;3.38;;;;;;;;;;4990306;28;20045;-59
2023/08/28 06:07:54;;;;;;;7.38;3.72;;;;;;;;;;4988808;28;20049;-60
2023/08/28 06:10:20;;;;;;;7.05;3.65;;;;;;;;;;5010787;28;20044;-59
2023/08/28 06:12:47;;;;;;;5.28;3.42;;;;;;;;;;5006576;28;20505;-60
2023/08/28 06:15:17;;;;;;;7.80;3.78;;;;;;;;;;5011063;28;20041;-59
2023/08/28 06:17:45;;;;;;;9.65;4.30;;;;;;;;;;4988293;28;20034;-59
2023/08/28 06:20:12;;;;;;;6.78;3.90;;;;;;;;;;5009408;28;20409;-60
2023/08/28 06:22:41;;;;;;;7.15;4.28;;;;;;;;;;4999364;28;20046;-60
2023/08/28 06:25:08;;;;;;;7.75;4.90;;;;;;;;;;5006801;28;20041;-60
2023/08/28 06:27:34;;;;;;;11.50;5.20;;;;;;;;;;4989279;28;20053;-60
2023/08/28 06:30:04;;;;;;;7.13;4.70;;;;;;;;;;5002161;28;20049;-60
2023/08/28 06:32:30;;;;;;;;;;;;;;;;;;4999708;28;20037;-60
2023/08/28 06:34:56;;;;;;;7.85;4.28;;;;;;;;;;5014818;28;20308;-60
2023/08/28 06:37:24;;;;;;;8.05;4.57;;;;;;;;;;4997088;28;20042;-60
2023/08/28 06:39:52;;;;;;;8.30;5.50;;;;;;;;;;5006202;28;20034;-60
2023/08/28 06:42:18;;;;;;;8.63;5.50;;;;;;;;;;5016019;28;20040;-60
2023/08/28 06:44:44;;;;;;;12.82;6.20;;;;;;;;;;5014729;28;20049;-59
2023/08/28 06:47:10;;;;;;;10.85;5.90;;;;;;;;;;5013719;28;20041;-59
2023/08/28 06:49:37;;;;;;;10.93;5.95;;;;;;;;;;5015902;28;20037;-59
2023/08/28 06:52:04;;;;;;;8.70;5.53;;;;;;;;;;5016192;28;20034;-60
2023/08/28 06:54:32;;;;;;;12.13;5.95;;;;;;;;;;5013938;28;20045;-60
2023/08/28 06:56:59;;;;;;;10.82;6.20;;;;;;;;;;5000757;28;20029;-60
2023/08/28 06:59:25;;;;;;;13.73;7.35;;;;;;;;;;4999615;28;20042;-59
2023/08/28 07:01:51;;;;;;;18.38;8.65;;;;;;;;;;5007505;28;20237;-60
2023/08/28 07:04:17;;;;;;;12.45;7.43;;;;;;;;;;4991057;28;20065;-60
2023/08/28 07:06:43;;;;;;;15.90;8.27;;;;;;;;;;5014671;28;20521;-60
2023/08/28 07:09:10;;;;;;;17.40;8.02;;;;;;;;;;4996101;28;20049;-60
2023/08/28 07:11:36;;;;;;;13.95;7.72;;;;;;;;;;5004219;28;20512;-59
2023/08/28 07:14:03;;;;;;;14.13;7.90;;;;;;;;;;5013885;28;20041;-60
2023/08/28 07:16:29;;;;;;;18.95;9.50;;;;;;;;;;5014638;28;20057;-60
2023/08/28 07:18:55;;;;;;;20.90;9.73;;;;;;;;;;5013635;28;20036;-60
2023/08/28 07:21:21;;;;;;;18.17;9.63;;;;;;;;;;5021075;28;20045;-59
2023/08/28 07:23:51;;;;;;;18.90;9.35;;;;;;;;;;5002866;28;20041;-60
2023/08/28 07:26:18;;;;;;;15.32;8.63;;;;;;;;;;5014248;28;20049;-60
2023/08/28 07:28:46;;;;;;;12.75;7.75;;;;;;;;;;5011289;28;20497;-58
2023/08/28 07:31:12;;;;;;;14.20;6.97;;;;;;;;;;4999311;28;20038;-59
2023/08/28 07:33:38;;;;;;;14.38;8.73;;;;;;;;;;5020827;28;20555;-60
2023/08/28 07:36:05;;;;;;;12.95;7.82;;;;;;;;;;5011597;28;20034;-60
2023/08/28 07:38:31;;;;;;;14.95;8.75;;;;;;;;;;4988011;28;20049;-59
2023/08/28 07:40:57;;;;;;;13.68;8.70;;;;;;;;;;5016323;28;20037;-60
2023/08/28 07:43:23;;;;;;;16.45;9.73;;;;;;;;;;5005222;28;20044;-60
2023/08/28 07:45:50;;;;;;;16.55;8.85;;;;;;;;;;5012281;28;20033;-61
2023/08/28 07:48:16;;;;;;;13.23;8.27;;;;;;;;;;5013033;28;20409;-60
2023/08/28 07:50:45;;;;;;;18.58;8.18;;;;;;;;;;5016367;28;20033;-60
2023/08/28 07:53:11;;;;;;;16.48;7.88;;;;;;;;;;5013090;28;20042;-61
2023/08/28 07:55:37;;;;;;;14.75;8.77;;;;;;;;;;5006247;28;20041;-60
2023/08/28 07:58:04;;;;;;;15.52;7.55;;;;;;;;;;5012354;28;20029;-61
2023/08/28 08:00:34;;;;;;;13.70;8.63;;;;;;;;;;4981034;28;20053;-61
2023/08/28 08:03:02;;;;;;;17.85;8.13;;;;;;;;;;5006554;28;20040;-61
2023/08/28 08:05:28;;;;;;;16.00;8.43;;;;;;;;;;5011063;28;20033;-60
2023/08/28 08:07:54;;;;;;;15.13;8.23;;;;;;;;;;4996404;28;20408;-59
2023/08/28 08:10:20;;;;;;;12.48;8.27;;;;;;;;;;4978261;28;20045;-61
2023/08/28 08:12:46;;;;;;;15.32;8.02;;;;;;;;;;5005227;28;20049;-61
2023/08/28 08:15:12;;;;;;;14.73;9.35;;;;;;;;;;5010557;28;20063;-61
2023/08/28 08:17:39;;;;;;;14.45;8.50;;;;;;;;;;5012058;28;20034;-61
2023/08/28 08:20:10;;;;;;;12.82;8.23;;;;;;;;;;5017992;28;20397;-60
2023/08/28 08:22:40;;;;;;;16.08;8.80;;;;;;;;;;4979740;28;20038;-61
2023/08/28 08:25:07;;;;;;;13.85;8.05;;;;;;;;;;5007128;28;20041;-60
2023/08/28 08:27:34;;;;;;;20.35;9.30;;;;;;;;;;5012470;28;20038;-61
2023/08/28 08:30:00;;;;;;;16.35;9.25;;;;;;;;;;5010758;28;20030;-61
2023/08/28 08:32:27;;;;;;;16.25;9.18;;;;;;;;;;5008063;28;20405;-60
2023/08/28 08:34:56;;;;;;;23.40;10.00;;;;;;;;;;5000006;28;20042;-61
2023/08/28 08:37:22;;;;;;;15.93;9.10;;;;;;;;;;5008632;28;20033;-61
2023/08/28 08:39:49;;;;;;;14.48;8.93;;;;;;;;;;5007931;28;20046;-61
2023/08/28 08:42:16;;;;;;;16.98;9.43;;;;;;;;;;5009420;28;20056;-61
2023/08/28 08:44:42;;;;;;;24.60;9.70;;;;;;;;;;5005227;28;20033;-61
2023/08/28 08:47:09;;;;;;;15.25;8.50;;;;;;;;;;5013403;28;20416;-61
2023/08/28 08:49:39;;;;;;;14.02;7.97;;;;;;;;;;5009619;28;20437;-61
2023/08/28 08:52:08;;;;;;;19.40;9.23;;;;;;;;;;5012677;28;20030;-61
2023/08/28 08:54:41;;;;;;;16.85;8.82;;;;;;;;;;5010173;28;20053;-61
2023/08/28 08:57:23;;;;;;;15.25;8.52;;;;;;;;;;4994313;28;20042;-61
2023/08/28 08:59:52;;;;;;;17.70;8.60;;;;;;;;;;5009403;28;20408;-61
2023/08/28 09:02:18;;;;;;;13.48;8.32;;;;;;;;;;5011145;28;20037;-61
2023/08/28 09:04:45;;;;;;;13.38;7.53;;;;;;;;;;5011165;28;20033;-61
2023/08/28 09:07:12;;;;;;;12.23;8.10;;;;;;;;;;5010951;28;20054;-61
2023/08/28 09:09:38;;;;;;;15.27;8.07;;;;;;;;;;5000091;28;20068;-61
2023/08/28 09:12:05;;;;;;;15.30;7.75;;;;;;;;;;5010444;28;20038;-61
2023/08/28 09:14:31;;;;;;;12.60;7.65;;;;;;;;;;5016627;28;20113;-61
2023/08/28 09:16:57;;;;;;;10.15;6.72;;;;;;;;;;5011596;28;20038;-61
2023/08/28 09:19:25;;;;;;;12.05;7.32;;;;;;;;;;5011217;28;20038;-61
2023/08/28 09:21:51;;;;;;;11.95;7.15;;;;;;;;;;4994789;28;20409;-61
2023/08/28 09:24:22;;;;;;;12.70;7.82;;;;;;;;;;5013947;28;20045;-61
2023/08/28 09:26:53;;;;;;;11.40;6.88;;;;;;;;;;5003719;28;20425;-60
2023/08/28 09:29:23;;;;;;;12.00;7.03;;;;;;;;;;5009569;28;20140;-61
2023/08/28 09:31:51;;;;;;;12.77;7.30;;;;;;;;;;5001747;28;20037;-60
2023/08/28 09:34:20;;;;;;;10.00;6.97;;;;;;;;;;5017473;28;20046;-60
2023/08/28 09:36:46;;;;;;;13.05;7.05;;;;;;;;;;5011589;28;20441;-61
2023/08/28 09:39:12;;;;;;;10.70;7.22;;;;;;;;;;5010703;28;20072;-60
2023/08/28 09:41:38;;;;;;;10.48;6.68;;;;;;;;;;4994196;28;20038;-61
2023/08/28 09:44:05;;;;;;;13.68;6.97;;;;;;;;;;4994558;28;20042;-61
2023/08/28 09:46:31;;;;;;;12.00;7.10;;;;;;;;;;5004544;28;20029;-61
2023/08/28 09:48:58;;;;;;;10.15;6.38;;;;;;;;;;4994347;28;20151;-60
2023/08/28 09:51:41;;;;;;;10.35;6.20;;;;;;;;;;5013123;28;20034;-59
2023/08/28 09:54:09;;;;;;;11.95;7.38;;;;;;;;;;5007452;28;20046;-61
2023/08/28 09:56:36;;;;;;;9.20;6.65;;;;;;;;;;5013977;28;20034;-60
2023/08/28 09:59:04;;;;;;;10.60;6.88;;;;;;;;;;5012816;28;20054;-60
2023/08/28 10:01:33;;;;;;;11.57;7.03;;;;;;;;;;5014862;28;20037;-61
2023/08/28 10:04:01;;;;;;;13.52;7.05;;;;;;;;;;5010866;28;20052;-61
2023/08/28 10:06:29;;;;;;;11.30;6.85;;;;;;;;;;4997247;28;20109;-60
2023/08/28 10:08:59;;;;;;;9.75;7.15;;;;;;;;;;4997622;28;20029;-61
2023/08/28 10:11:36;;;;;;;10.50;7.50;;;;;;;;;;5016016;28;20044;-60
2023/08/28 10:14:04;;;;;;;9.93;6.78;;;;;;;;;;5004485;28;20038;-61
2023/08/28 10:16:35;;;;;;;11.07;7.25;;;;;;;;;;4982057;28;20050;-60
2023/08/28 10:19:23;;;;;;;6.43;4.80;;;;;;;;;;5014325;28;20668;-60
2023/08/28 10:21:51;;;;;;;13.20;4.82;;;;;;;;;;5019851;28;20045;-59
2023/08/28 10:24:18;;;;;;;9.18;5.90;;;;;;;;;;5000117;28;20046;-60
2023/08/28 10:26:46;;;;;;;10.20;6.38;;;;;;;;;;5006904;28;20033;-60
2023/08/28 10:29:15;;;;;;;13.88;6.47;;;;;;;;;;5023706;28;20034;-60
2023/08/28 10:31:42;;;;;;;9.50;6.47;;;;;;;;;;5025527;28;20045;-59
2023/08/28 10:34:10;;;;;;;9.82;5.95;;;;;;;;;;5024157;28;20033;-59
2023/08/28 10:36:36;;;;;;;12.27;5.70;;;;;;;;;;5009663;28;20041;-58
2023/08/28 10:39:03;;;;;;;9.57;5.72;;;;;;;;;;5013897;28;20416;-59
2023/08/28 10:41:30;;;;;;;9.32;6.07;;;;;;;;;;5001204;28;20052;-60
2023/08/28 10:43:59;;;;;;;11.25;6.15;;;;;;;;;;4988636;28;20044;-60
2023/08/28 10:46:28;;;;;;;12.70;7.10;;;;;;;;;;4999716;28;20045;-60
2023/08/28 10:49:04;;;;;;;12.27;5.73;;;;;;;;;;5009941;28;20038;-60
2023/08/28 10:51:32;;;;;;;10.48;4.78;;;;;;;;;;5014671;28;20531;-59
2023/08/28 10:54:01;;;;;;;7.05;5.18;;;;;;;;;;5015783;28;20041;-60
2023/08/28 10:56:32;;;;;;;6.70;4.53;;;;;;;;;;5012287;28;20532;-59
2023/08/28 10:59:26;;;;;;;8.00;4.95;;;;;;;;;;5010750;28;20050;-59
2023/08/28 11:01:53;;;;;;;8.77;4.80;;;;;;;;;;4999555;28;20384;-60
2023/08/28 11:04:21;;;;;;;8.45;6.28;;;;;;;;;;5019926;28;20046;-60
2023/08/28 11:06:47;;;;;;;17.60;6.72;;;;;;;;;;5016219;28;20034;-60
2023/08/28 11:09:26;;;;;;;9.95;6.22;;;;;;;;;;4998684;28;20054;-59
2023/08/28 11:11:58;;;;;;;9.57;6.13;;;;;;;;;;5019449;28;20500;-60
2023/08/28 11:14:25;;;;;;;9.18;5.53;;;;;;;;;;5022173;28;20045;-60
2023/08/28 11:17:09;;;;;;;6.85;5.32;;;;;;;;;;5016945;28;20046;-60
2023/08/28 11:19:56;;;;;;;11.45;6.47;;;;;;;;;;5021263;28;20064;-59
2023/08/28 11:22:36;;;;;;;8.67;5.60;;;;;;;;;;5005875;28;20046;-60
2023/08/28 11:25:07;;;;;;;8.20;5.47;;;;;;;;;;5005506;28;20029;-60
2023/08/28 11:27:45;;;;;;;6.40;5.38;;;;;;;;;;5001416;28;20038;-60
2023/08/28 11:30:12;;;;;;;7.05;4.97;;;;;;;;;;4987784;28;20050;-60
2023/08/28 11:32:42;;;;;;;8.70;5.57;;;;;;;;;;4999455;28;20049;-60
2023/08/28 11:35:09;;;;;;;7.15;4.45;;;;;;;;;;4990190;28;20053;-59
2023/08/28 11:37:56;;;;;;;6.55;3.40;;;;;;;;;;5011250;28;20045;-59
2023/08/28 11:40:25;;;;;;;5.75;3.80;;;;;;;;;;5006563;28;20053;-60
2023/08/28 11:43:03;;;;;;;8.38;3.88;;;;;;;;;;4997817;28;20620;-60
2023/08/28 11:45:29;;;;;;;5.13;4.22;;;;;;;;;;5011273;28;20049;-61
2023/08/28 11:47:59;;;;;;;6.95;4.30;;;;;;;;;;4990336;28;20030;-60
2023/08/28 11:50:26;;;;;;;6.43;4.53;;;;;;;;;;5011459;28;20039;-61
2023/08/28 11:52:52;;;;;;;6.63;4.60;;;;;;;;;;5014620;28;20038;-61
2023/08/28 11:55:21;;;;;;;8.07;4.30;;;;;;;;;;4981205;28;20065;-61
2023/08/28 11:57:49;;;;;;;6.25;4.53;;;;;;;;;;5008167;28;20046;-61
2023/08/28 12:00:16;;;;;;;8.38;4.72;;;;;;;;;;5013169;28;20049;-61
2023/08/28 12:02:45;;;;;;;8.35;5.18;;;;;;;;;;5015507;28;20052;-61
2023/08/28 12:05:15;;;;;;;7.10;4.65;;;;;;;;;;5007150;28;20394;-60
2023/08/28 12:07:45;;;;;;;8.18;4.55;;;;;;;;;;5011179;28;20405;-60
2023/08/28 12:10:14;;;;;;;7.20;4.30;;;;;;;;;;5011621;28;20030;-59
2023/08/28 12:12:40;;;;;;;8.73;4.63;;;;;;;;;;5007552;28;20031;-60
2023/08/28 12:15:08;;;;;;;5.57;4.38;;;;;;;;;;4990448;28;20045;-61
2023/08/28 12:17:35;;;;;;;8.23;4.70;;;;;;;;;;4981499;28;20517;-60
2023/08/28 12:20:04;;;;;;;6.43;4.30;;;;;;;;;;5017475;28;20492;-61
2023/08/28 12:22:32;;;;;;;6.57;4.53;;;;;;;;;;4999485;28;20054;-60
2023/08/28 12:24:59;;;;;;;7.05;4.20;;;;;;;;;;5004843;28;20030;-61
2023/08/28 12:27:27;;;;;;;8.25;4.55;;;;;;;;;;5009441;28;20045;-60
2023/08/28 12:29:56;;;;;;;12.02;4.22;;;;;;;;;;5010225;28;20591;-61
2023/08/28 12:32:23;;;;;;;7.47;4.10;;;;;;;;;;4997023;28;20053;-61
2023/08/28 12:34:49;;;;;;;6.60;4.38;;;;;;;;;;4990912;28;20489;-61
2023/08/28 12:37:16;;;;;;;7.32;4.68;;;;;;;;;;5013082;28;20034;-61
2023/08/28 12:39:52;;;;;;;5.50;4.43;;;;;;;;;;5011606;28;20038;-61
2023/08/28 12:42:20;;;;;;;10.65;5.00;;;;;;;;;;5009214;28;20057;-61
2023/08/28 12:44:47;;;;;;;7.03;4.30;;;;;;;;;;5009581;28;20056;-61
2023/08/28 12:47:17;;;;;;;8.05;4.97;;;;;;;;;;5011104;28;20038;-61
2023/08/28 12:49:44;;;;;;;6.32;4.60;;;;;;;;;;5009590;28;20057;-61
2023/08/28 12:52:11;;;;;;;5.90;4.93;;;;;;;;;;5012787;28;20679;-61
2023/08/28 12:54:38;;;;;;;6.88;4.50;;;;;;;;;;5010445;28;20114;-60
2023/08/28 12:57:05;;;;;;;6.28;4.90;;;;;;;;;;5005520;28;20037;-60
2023/08/28 12:59:32;;;;;;;8.25;4.70;;;;;;;;;;5010039;28;20058;-61
2023/08/28 13:01:59;;;;;;;8.35;4.75;;;;;;;;;;5008410;28;20428;-61
2023/08/28 13:04:25;;;;;;;8.85;5.00;;;;;;;;;;5012567;28;20409;-61
2023/08/28 13:06:52;;;;;;;6.50;4.70;;;;;;;;;;5012275;28;20034;-61
2023/08/28 13:09:19;;;;;;;5.88;4.25;;;;;;;;;;5014323;28;20591;-61
2023/08/28 13:11:47;;;;;;;6.38;4.00;;;;;;;;;;5019362;28;20044;-61
2023/08/28 13:14:13;;;;;;;6.07;4.65;;;;;;;;;;5009872;28;20049;-61
2023/08/28 13:16:42;;;;;;;4.72;4.22;;;;;;;;;;5011868;28;20050;-62
2023/08/28 13:19:12;;;;;;;7.50;4.63;;;;;;;;;;5010849;28;20062;-61
2023/08/28 13:21:38;;;;;;;9.13;4.72;;;;;;;;;;5018929;28;20037;-61
2023/08/28 13:24:05;;;;;;;6.55;4.32;;;;;;;;;;5001421;28;20037;-61
2023/08/28 13:26:31;;;;;;;7.70;4.07;;;;;;;;;;5019344;28;20406;-62
2023/08/28 13:28:58;;;;;;;7.78;5.00;;;;;;;;;;5018059;28;20452;-61
2023/08/28 13:31:24;;;;;;;7.82;4.85;;;;;;;;;;4993992;28;20054;-61
2023/08/28 13:33:50;;;;;;;7.32;5.47;;;;;;;;;;4994394;28;20053;-60
2023/08/28 13:36:18;;;;;;;7.78;5.22;;;;;;;;;;4995030;28;20042;-61
2023/08/28 13:38:45;;;;;;;11.82;5.93;;;;;;;;;;5012660;28;20044;-61
2023/08/28 13:41:11;;;;;;;13.98;5.35;;;;;;;;;;5013179;28;20040;-61
2023/08/28 13:43:37;;;;;;;7.32;5.55;;;;;;;;;;5012845;28;20042;-60
2023/08/28 13:46:03;;;;;;;10.00;6.28;;;;;;;;;;5013487;28;20497;-61
2023/08/28 13:48:29;;;;;;;11.25;6.28;;;;;;;;;;4993167;28;20061;-61
2023/08/28 13:50:55;;;;;;;10.95;6.47;;;;;;;;;;4990163;28;20042;-61
2023/08/28 13:53:24;;;;;;;9.50;6.60;;;;;;;;;;5011546;28;20029;-60
2023/08/28 13:55:54;;;;;;;10.40;6.50;;;;;;;;;;5014194;28;20073;-60
2023/08/28 13:58:22;;;;;;;10.43;6.00;;;;;;;;;;5015583;28;20413;-61
2023/08/28 14:00:56;;;;;;;9.80;6.68;;;;;;;;;;5016912;28;20041;-61
2023/08/28 14:03:22;;;;;;;8.68;6.43;;;;;;;;;;5011451;28;20038;-60
2023/08/28 14:05:48;;;;;;;10.43;6.60;;;;;;;;;;5015865;28;20065;-59
2023/08/28 14:08:14;;;;;;;8.48;5.63;;;;;;;;;;5015420;28;20524;-60
2023/08/28 14:10:40;;;;;;;7.53;5.53;;;;;;;;;;5011262;28;20034;-60
2023/08/28 14:13:07;;;;;;;9.82;4.25;;;;;;;;;;5016373;28;20057;-61
2023/08/28 14:15:33;;;;;;;6.60;4.28;;;;;;;;;;5011133;28;20041;-60
2023/08/28 14:17:59;;;;;;;7.07;4.13;;;;;;;;;;5010340;28;20053;-60
2023/08/28 14:20:25;;;;;;;6.22;4.20;;;;;;;;;;4993853;28;20416;-61
2023/08/28 14:22:51;;;;;;;8.48;4.47;;;;;;;;;;5000999;28;20045;-61
2023/08/28 14:25:18;;;;;;;9.50;4.60;;;;;;;;;;4991443;28;20057;-60
2023/08/28 14:27:44;;;;;;;8.27;4.30;;;;;;;;;;4998765;28;20034;-60
2023/08/28 14:30:10;;;;;;;6.03;4.10;;;;;;;;;;5010324;28;20037;-60
2023/08/28 14:32:37;;;;;;;4.90;4.32;;;;;;;;;;5005209;28;20041;-60
2023/08/28 14:35:03;;;;;;;5.25;4.07;;;;;;;;;;4992342;28;20052;-60
2023/08/28 14:37:29;;;;;;;5.72;3.88;;;;;;;;;;5010544;28;20042;-60
2023/08/28 14:39:56;;;;;;;5.82;3.85;;;;;;;;;;5006793;28;20053;-60
2023/08/28 14:42:22;;;;;;;6.03;3.75;;;;;;;;;;5011158;28;20030;-60
2023/08/28 14:44:48;;;;;;;11.10;4.05;;;;;;;;;;5008698;28;20049;-60